sensor_id;sensor_type;location;lat;lon;timestamp;pressure;altitude;pressure_sealevel;temperature;humidity
5595;BME280;1003;48.002;7.788;2023-01-29T00:02:20;100181.34;;;0.86;100.00
5595;BME280;1003;48.002;7.788;2023-01-29T00:04:48;100173.59;;;0.80;100.00
5595;BME280;1003;48.002;7.788;2023-01-29T00:07:15;100174.19;;;0.74;100.00
5595;BME280;1003;48.002;7.788;2023-01-29T00:09:42;100172.13;;;0.84;100.00
5595;BME280;1003;48.002;7.788;2023-01-29T00:12:09;100180.19;;;0.79;100.00
5595;BME280;1003;48.002;7.788;2023-01-29T00:14:36;100178.44;;;0.77;100.00
5595;BME280;1003;48.002;7.788;2023-01-29T00:17:03;100181.69;;;0.76;100.00
5595;BME280;1003;48.002;7.788;2023-01-29T00:19:30;100178.91;;;0.70;100.00
5595;BME280;1003;48.002;7.788;2023-01-29T00:21:58;100189.75;;;0.72;100.00
5595;BME280;1003;48.002;7.788;2023-01-29T00:24:25;100189.75;;;0.72;100.00
5595;BME280;1003;48.002;7.788;2023-01-29T00:26:52;100187.34;;;0.73;100.00
5595;BME280;1003;48.002;7.788;2023-01-29T00:29:19;100184.28;;;0.79;100.00
5595;BME280;1003;48.002;7.788;2023-01-29T00:31:46;100181.97;;;0.82;100.00
5595;BME280;1003;48.002;7.788;2023-01-29T00:34:13;100147.75;;;0.73;100.00
5595;BME280;1003;48.002;7.788;2023-01-29T00:36:40;100149.81;;;0.64;100.00
5595;BME280;1003;48.002;7.788;2023-01-29T00:39:12;100148.53;;;0.72;100.00
5595;BME280;1003;48.002;7.788;2023-01-29T00:41:39;100145.22;;;0.72;100.00
5595;BME280;1003;48.002;7.788;2023-01-29T00:44:24;100150.28;;;0.75;100.00
5595;BME280;1003;48.002;7.788;2023-01-29T00:47:08;100144.94;;;0.66;100.00
5595;BME280;1003;48.002;7.788;2023-01-29T00:49:55;100148.81;;;0.78;100.00
5595;BME280;1003;48.002;7.788;2023-01-29T00:52:23;100135.69;;;0.62;100.00
5595;BME280;1003;48.002;7.788;2023-01-29T00:54:52;100135.63;;;0.60;100.00
5595;BME280;1003;48.002;7.788;2023-01-29T00:57:20;100132.88;;;0.54;100.00
5595;BME280;1003;48.002;7.788;2023-01-29T00:59:47;100131.53;;;0.61;100.00
5595;BME280;1003;48.002;7.788;2023-01-29T01:02:15;100125.06;;;0.64;100.00
5595;BME280;1003;48.002;7.788;2023-01-29T01:05:00;100125.00;;;0.63;100.00
5595;BME280;1003;48.002;7.788;2023-01-29T01:07:28;100134.69;;;0.58;100.00
5595;BME280;1003;48.002;7.788;2023-01-29T01:09:57;100131.38;;;0.58;100.00
5595;BME280;1003;48.002;7.788;2023-01-29T01:12:42;100132.88;;;0.54;100.00
5595;BME280;1003;48.002;7.788;2023-01-29T01:15:10;100140.56;;;0.60;100.00
5595;BME280;1003;48.002;7.788;2023-01-29T01:17:37;100140.63;;;0.62;100.00
5595;BME280;1003;48.002;7.788;2023-01-29T01:20:05;100139.22;;;0.67;100.00
5595;BME280;1003;48.002;7.788;2023-01-29T01:22:32;100133.00;;;0.57;100.00
5595;BME280;1003;48.002;7.788;2023-01-29T01:25:02;100139.63;;;0.58;100.00
5595;BME280;1003;48.002;7.788;2023-01-29T01:27:29;100142.47;;;0.66;100.00
5595;BME280;1003;48.002;7.788;2023-01-29T01:29:56;100147.06;;;0.58;100.00
5595;BME280;1003;48.002;7.788;2023-01-29T01:32:23;100141.91;;;0.53;100.00
5595;BME280;1003;48.002;7.788;2023-01-29T01:34:51;100138.72;;;0.56;100.00
5595;BME280;1003;48.002;7.788;2023-01-29T01:37:18;100145.88;;;0.50;100.00
5595;BME280;1003;48.002;7.788;2023-01-29T01:39:46;100149.81;;;0.46;100.00
5595;BME280;1003;48.002;7.788;2023-01-29T01:42:16;100140.56;;;0.42;100.00
5595;BME280;1003;48.002;7.788;2023-01-29T01:45:06;100137.81;;;0.36;100.00
5595;BME280;1003;48.002;7.788;2023-01-29T01:47:40;100149.75;;;0.45;100.00
5595;BME280;1003;48.002;7.788;2023-01-29T01:50:14;100150.41;;;0.41;100.00
5595;BME280;1003;48.002;7.788;2023-01-29T01:52:46;100148.44;;;0.34;100.00
5595;BME280;1003;48.002;7.788;2023-01-29T01:55:19;100158.88;;;0.46;100.00
5595;BME280;1003;48.002;7.788;2023-01-29T01:57:54;100157.75;;;0.39;100.00
5595;BME280;1003;48.002;7.788;2023-01-29T02:00:25;100139.44;;;0.36;100.00
5595;BME280;1003;48.002;7.788;2023-01-29T02:02:53;100141.00;;;0.34;100.00
5595;BME280;1003;48.002;7.788;2023-01-29T02:05:38;100134.38;;;0.33;100.00
5595;BME280;1003;48.002;7.788;2023-01-29T02:08:31;100124.19;;;0.26;100.00
5595;BME280;1003;48.002;7.788;2023-01-29T02:11:19;100131.31;;;0.20;100.00
5595;BME280;1003;48.002;7.788;2023-01-29T02:13:47;100134.84;;;0.25;100.00
5595;BME280;1003;48.002;7.788;2023-01-29T02:16:19;100143.94;;;0.26;100.00
5595;BME280;1003;48.002;7.788;2023-01-29T02:18:46;100143.25;;;0.29;100.00
5595;BME280;1003;48.002;7.788;2023-01-29T02:21:51;100142.13;;;0.22;100.00
5595;BME280;1003;48.002;7.788;2023-01-29T02:24:57;100147.56;;;0.15;100.00
5595;BME280;1003;48.002;7.788;2023-01-29T02:28:10;100149.00;;;-0.06;100.00
5595;BME280;1003;48.002;7.788;2023-01-29T02:30:45;100150.91;;;-0.18;100.00
5595;BME280;1003;48.002;7.788;2023-01-29T02:33:25;100142.91;;;-0.31;100.00
5595;BME280;1003;48.002;7.788;2023-01-29T02:36:09;100141.38;;;-0.45;100.00
5595;BME280;1003;48.002;7.788;2023-01-29T02:38:49;100139.69;;;-0.46;100.00
5595;BME280;1003;48.002;7.788;2023-01-29T02:41:29;100147.84;;;-0.31;100.00
5595;BME280;1003;48.002;7.788;2023-01-29T02:44:07;100137.81;;;-0.50;100.00
5595;BME280;1003;48.002;7.788;2023-01-29T02:46:45;100133.84;;;-0.64;100.00
5595;BME280;1003;48.002;7.788;2023-01-29T02:49:25;100144.78;;;-0.59;100.00
5595;BME280;1003;48.002;7.788;2023-01-29T02:52:02;100152.81;;;-0.63;100.00
5595;BME280;1003;48.002;7.788;2023-01-29T02:54:43;100137.84;;;-0.83;100.00
5595;BME280;1003;48.002;7.788;2023-01-29T02:57:18;100140.78;;;-0.90;100.00
5595;BME280;1003;48.002;7.788;2023-01-29T02:59:55;100140.22;;;-1.00;100.00
5595;BME280;1003;48.002;7.788;2023-01-29T03:02:29;100147.09;;;-0.95;100.00
5595;BME280;1003;48.002;7.788;2023-01-29T03:05:02;100147.22;;;-0.92;100.00
5595;BME280;1003;48.002;7.788;2023-01-29T03:07:37;100146.75;;;-1.17;100.00
5595;BME280;1003;48.002;7.788;2023-01-29T03:10:16;100145.56;;;-1.24;100.00
5595;BME280;1003;48.002;7.788;2023-01-29T03:12:53;100146.56;;;-1.37;100.00
5595;BME280;1003;48.002;7.788;2023-01-29T03:15:28;100151.59;;;-1.50;100.00
5595;BME280;1003;48.002;7.788;2023-01-29T03:18:08;100164.59;;;-1.52;100.00
5595;BME280;1003;48.002;7.788;2023-01-29T03:20:42;100153.84;;;-1.69;100.00
5595;BME280;1003;48.002;7.788;2023-01-29T03:23:18;100153.69;;;-1.87;100.00
5595;BME280;1003;48.002;7.788;2023-01-29T03:26:04;100161.41;;;-1.96;100.00
5595;BME280;1003;48.002;7.788;2023-01-29T03:28:50;100181.13;;;-1.96;100.00
5595;BME280;1003;48.002;7.788;2023-01-29T03:31:36;100205.94;;;-1.93;100.00
5595;BME280;1003;48.002;7.788;2023-01-29T03:34:26;100221.63;;;-2.05;100.00
5595;BME280;1003;48.002;7.788;2023-01-29T03:37:04;100223.66;;;-2.13;100.00
5595;BME280;1003;48.002;7.788;2023-01-29T03:39:35;100224.09;;;-2.05;100.00
5595;BME280;1003;48.002;7.788;2023-01-29T03:42:12;100248.72;;;-2.05;100.00
5595;BME280;1003;48.002;7.788;2023-01-29T03:44:53;100262.28;;;-2.12;100.00
5595;BME280;1003;48.002;7.788;2023-01-29T03:47:40;100259.06;;;-2.26;100.00
5595;BME280;1003;48.002;7.788;2023-01-29T03:50:20;100261.53;;;-2.39;100.00
5595;BME280;1003;48.002;7.788;2023-01-29T03:53:01;100260.34;;;-2.46;100.00
5595;BME280;1003;48.002;7.788;2023-01-29T03:55:40;100273.41;;;-2.47;100.00
5595;BME280;1003;48.002;7.788;2023-01-29T03:58:20;100287.78;;;-2.40;100.00
5595;BME280;1003;48.002;7.788;2023-01-29T04:00:56;100281.44;;;-2.36;100.00
5595;BME280;1003;48.002;7.788;2023-01-29T04:03:32;100296.28;;;-2.34;100.00
5595;BME280;1003;48.002;7.788;2023-01-29T04:06:08;100297.91;;;-2.35;100.00
5595;BME280;1003;48.002;7.788;2023-01-29T04:08:46;100317.03;;;-2.31;100.00
5595;BME280;1003;48.002;7.788;2023-01-29T04:11:17;100322.75;;;-2.17;100.00
5595;BME280;1003;48.002;7.788;2023-01-29T04:13:47;100334.13;;;-2.19;100.00
5595;BME280;1003;48.002;7.788;2023-01-29T04:16:19;100356.66;;;-2.13;100.00
5595;BME280;1003;48.002;7.788;2023-01-29T04:18:50;100358.69;;;-1.93;100.00
5595;BME280;1003;48.002;7.788;2023-01-29T04:21:18;100362.91;;;-1.90;100.00
5595;BME280;1003;48.002;7.788;2023-01-29T04:23:46;100375.59;;;-1.84;100.00
5595;BME280;1003;48.002;7.788;2023-01-29T04:26:54;100380.47;;;-1.71;100.00
5595;BME280;1003;48.002;7.788;2023-01-29T04:29:50;100379.44;;;-1.74;100.00
5595;BME280;1003;48.002;7.788;2023-01-29T04:32:27;100384.22;;;-1.63;100.00
5595;BME280;1003;48.002;7.788;2023-01-29T04:35:16;100378.44;;;-1.63;100.00
5595;BME280;1003;48.002;7.788;2023-01-29T04:38:00;100375.69;;;-1.54;100.00
5595;BME280;1003;48.002;7.788;2023-01-29T04:40:41;100374.91;;;-1.53;100.00
5595;BME280;1003;48.002;7.788;2023-01-29T04:43:20;100384.06;;;-1.51;100.00
5595;BME280;1003;48.002;7.788;2023-01-29T04:46:07;100379.25;;;-1.49;100.00
5595;BME280;1003;48.002;7.788;2023-01-29T04:48:56;100373.75;;;-1.45;100.00
5595;BME280;1003;48.002;7.788;2023-01-29T04:51:39;100382.84;;;-1.44;100.00
5595;BME280;1003;48.002;7.788;2023-01-29T04:54:17;100373.13;;;-1.41;100.00
5595;BME280;1003;48.002;7.788;2023-01-29T04:56:55;100387.59;;;-1.33;100.00
5595;BME280;1003;48.002;7.788;2023-01-29T04:59:29;100386.66;;;-1.20;100.00
5595;BME280;1003;48.002;7.788;2023-01-29T05:02:00;100391.09;;;-1.14;100.00
5595;BME280;1003;48.002;7.788;2023-01-29T05:04:30;100381.16;;;-1.16;100.00
5595;BME280;1003;48.002;7.788;2023-01-29T05:07:02;100377.66;;;-1.19;100.00
5595;BME280;1003;48.002;7.788;2023-01-29T05:09:31;100381.16;;;-1.16;100.00
5595;BME280;1003;48.002;7.788;2023-01-29T05:12:01;100378.50;;;-1.19;100.00
5595;BME280;1003;48.002;7.788;2023-01-29T05:14:33;100387.78;;;-1.15;100.00
5595;BME280;1003;48.002;7.788;2023-01-29T05:17:09;100389.41;;;-1.15;100.00
5595;BME280;1003;48.002;7.788;2023-01-29T05:19:39;100391.44;;;-1.08;100.00
5595;BME280;1003;48.002;7.788;2023-01-29T05:22:10;100387.47;;;-1.06;100.00
5595;BME280;1003;48.002;7.788;2023-01-29T05:24:38;100390.78;;;-1.06;100.00
5595;BME280;1003;48.002;7.788;2023-01-29T05:27:05;100377.50;;;-1.08;100.00
5595;BME280;1003;48.002;7.788;2023-01-29T05:29:50;100365.06;;;-1.09;100.00
5595;BME280;1003;48.002;7.788;2023-01-29T05:32:17;100374.09;;;-1.10;100.00
5595;BME280;1003;48.002;7.788;2023-01-29T05:34:44;100370.19;;;-1.06;100.00
5595;BME280;1003;48.002;7.788;2023-01-29T05:37:12;100377.50;;;-1.08;100.00
5595;BME280;1003;48.002;7.788;2023-01-29T05:39:39;100376.31;;;-0.99;100.00
5595;BME280;1003;48.002;7.788;2023-01-29T05:42:06;100369.22;;;-1.08;100.00
5595;BME280;1003;48.002;7.788;2023-01-29T05:44:33;100360.66;;;-1.15;100.00
5595;BME280;1003;48.002;7.788;2023-01-29T05:47:00;100372.47;;;-0.94;100.00
5595;BME280;1003;48.002;7.788;2023-01-29T05:49:28;100362.78;;;-1.06;100.00
5595;BME280;1003;48.002;7.788;2023-01-29T05:51:55;100365.75;;;-1.12;100.00
5595;BME280;1003;48.002;7.788;2023-01-29T05:54:23;100365.75;;;-1.12;100.00
5595;BME280;1003;48.002;7.788;2023-01-29T05:56:50;100370.59;;;-1.13;100.00
5595;BME280;1003;48.002;7.788;2023-01-29T05:59:18;100373.94;;;-1.13;100.00
5595;BME280;1003;48.002;7.788;2023-01-29T06:01:45;100371.53;;;-1.11;100.00
5595;BME280;1003;48.002;7.788;2023-01-29T06:04:12;100370.78;;;-1.10;100.00
5595;BME280;1003;48.002;7.788;2023-01-29T06:06:39;100364.91;;;-1.12;100.00
5595;BME280;1003;48.002;7.788;2023-01-29T06:09:06;100372.56;;;-1.08;100.00
5595;BME280;1003;48.002;7.788;2023-01-29T06:11:34;100348.75;;;-1.07;100.00
5595;BME280;1003;48.002;7.788;2023-01-29T06:14:01;100334.69;;;-1.08;100.00
5595;BME280;1003;48.002;7.788;2023-01-29T06:16:28;100327.72;;;-1.15;100.00
5595;BME280;1003;48.002;7.788;2023-01-29T06:18:55;100312.84;;;-1.32;100.00
5595;BME280;1003;48.002;7.788;2023-01-29T06:21:22;100297.06;;;-1.50;100.00
5595;BME280;1003;48.002;7.788;2023-01-29T06:23:51;100283.88;;;-1.65;100.00
5595;BME280;1003;48.002;7.788;2023-01-29T06:26:18;100292.34;;;-1.75;100.00
5595;BME280;1003;48.002;7.788;2023-01-29T06:28:49;100299.22;;;-1.84;100.00
5595;BME280;1003;48.002;7.788;2023-01-29T06:31:17;100312.88;;;-1.89;100.00
5595;BME280;1003;48.002;7.788;2023-01-29T06:33:44;100317.69;;;-2.05;100.00
5595;BME280;1003;48.002;7.788;2023-01-29T06:36:11;100326.31;;;-2.12;100.00
5595;BME280;1003;48.002;7.788;2023-01-29T06:38:38;100328.44;;;-2.31;100.00
5595;BME280;1003;48.002;7.788;2023-01-29T06:41:09;100339.94;;;-2.45;100.00
5595;BME280;1003;48.002;7.788;2023-01-29T06:43:37;100350.47;;;-2.61;100.00
5595;BME280;1003;48.002;7.788;2023-01-29T06:46:07;100359.38;;;-2.63;100.00
5595;BME280;1003;48.002;7.788;2023-01-29T06:48:34;100355.78;;;-2.81;100.00
5595;BME280;1003;48.002;7.788;2023-01-29T06:51:03;100359.00;;;-2.96;100.00
5595;BME280;1003;48.002;7.788;2023-01-29T06:53:32;100357.06;;;-3.13;100.00
5595;BME280;1003;48.002;7.788;2023-01-29T06:55:59;100374.41;;;-3.11;100.00
5595;BME280;1003;48.002;7.788;2023-01-29T06:58:27;100398.22;;;-2.97;100.00
5595;BME280;1003;48.002;7.788;2023-01-29T07:01:01;100405.44;;;-3.00;100.00
5595;BME280;1003;48.002;7.788;2023-01-29T07:03:29;100402.94;;;-3.13;100.00
5595;BME280;1003;48.002;7.788;2023-01-29T07:05:56;100416.06;;;-3.26;100.00
5595;BME280;1003;48.002;7.788;2023-01-29T07:08:23;100420.38;;;-3.35;100.00
5595;BME280;1003;48.002;7.788;2023-01-29T07:10:50;100430.97;;;-3.36;100.00
5595;BME280;1003;48.002;7.788;2023-01-29T07:13:17;100441.09;;;-3.32;100.00
5595;BME280;1003;48.002;7.788;2023-01-29T07:15:44;100451.78;;;-3.31;100.00
5595;BME280;1003;48.002;7.788;2023-01-29T07:18:11;100456.69;;;-3.31;100.00
5595;BME280;1003;48.002;7.788;2023-01-29T07:20:41;100447.03;;;-3.28;100.00
5595;BME280;1003;48.002;7.788;2023-01-29T07:23:11;100454.19;;;-3.20;100.00
5595;BME280;1003;48.002;7.788;2023-01-29T07:25:39;100463.84;;;-3.09;100.00
5595;BME280;1003;48.002;7.788;2023-01-29T07:28:06;100476.38;;;-2.93;100.00
5595;BME280;1003;48.002;7.788;2023-01-29T07:30:34;100490.16;;;-2.70;100.00
5595;BME280;1003;48.002;7.788;2023-01-29T07:33:02;100500.22;;;-2.54;100.00
5595;BME280;1003;48.002;7.788;2023-01-29T07:35:30;100516.72;;;-2.40;100.00
5595;BME280;1003;48.002;7.788;2023-01-29T07:37:58;100512.75;;;-2.24;100.00
5595;BME280;1003;48.002;7.788;2023-01-29T07:40:25;100521.94;;;-2.08;100.00
5595;BME280;1003;48.002;7.788;2023-01-29T07:42:57;100522.97;;;-1.92;100.00
5595;BME280;1003;48.002;7.788;2023-01-29T07:45:24;100525.53;;;-1.77;100.00
5595;BME280;1003;48.002;7.788;2023-01-29T07:47:52;100534.88;;;-1.58;100.00
5595;BME280;1003;48.002;7.788;2023-01-29T07:50:20;100525.91;;;-1.43;100.00
5595;BME280;1003;48.002;7.788;2023-01-29T07:52:47;100528.72;;;-1.23;100.00
5595;BME280;1003;48.002;7.788;2023-01-29T07:55:16;100528.25;;;-1.03;100.00
5595;BME280;1003;48.002;7.788;2023-01-29T07:57:43;100522.31;;;-0.92;100.00
5595;BME280;1003;48.002;7.788;2023-01-29T08:00:12;100524.47;;;-0.83;100.00
5595;BME280;1003;48.002;7.788;2023-01-29T08:02:40;100527.72;;;-0.69;100.00
5595;BME280;1003;48.002;7.788;2023-01-29T08:05:08;100530.44;;;-0.50;100.00
5595;BME280;1003;48.002;7.788;2023-01-29T08:07:35;100547.28;;;-0.28;100.00
5595;BME280;1003;48.002;7.788;2023-01-29T08:10:03;100552.31;;;-0.12;100.00
5595;BME280;1003;48.002;7.788;2023-01-29T08:12:31;100547.09;;;-0.02;100.00
5595;BME280;1003;48.002;7.788;2023-01-29T08:14:58;100544.22;;;0.06;100.00
5595;BME280;1003;48.002;7.788;2023-01-29T08:17:25;100548.81;;;0.31;100.00
5595;BME280;1003;48.002;7.788;2023-01-29T08:19:52;100551.19;;;0.44;100.00
5595;BME280;1003;48.002;7.788;2023-01-29T08:22:19;100537.81;;;0.57;100.00
5595;BME280;1003;48.002;7.788;2023-01-29T08:24:46;100527.03;;;0.71;100.00
5595;BME280;1003;48.002;7.788;2023-01-29T08:27:13;100501.44;;;0.87;100.00
5595;BME280;1003;48.002;7.788;2023-01-29T08:29:41;100482.28;;;1.00;100.00
5595;BME280;1003;48.002;7.788;2023-01-29T08:32:09;100454.38;;;1.03;100.00
5595;BME280;1003;48.002;7.788;2023-01-29T08:34:36;100428.94;;;0.89;100.00
5595;BME280;1003;48.002;7.788;2023-01-29T08:37:03;100414.34;;;0.77;100.00
5595;BME280;1003;48.002;7.788;2023-01-29T08:39:30;100409.75;;;0.85;100.00
5595;BME280;1003;48.002;7.788;2023-01-29T08:41:57;100402.84;;;0.96;100.00
5595;BME280;1003;48.002;7.788;2023-01-29T08:44:24;100402.22;;;1.00;100.00
5595;BME280;1003;48.002;7.788;2023-01-29T08:46:53;100391.53;;;1.01;100.00
5595;BME280;1003;48.002;7.788;2023-01-29T08:49:20;100384.63;;;1.12;100.00
5595;BME280;1003;48.002;7.788;2023-01-29T08:51:47;100377.28;;;1.13;100.00
5595;BME280;1003;48.002;7.788;2023-01-29T08:54:16;100380.19;;;1.22;100.00
5595;BME280;1003;48.002;7.788;2023-01-29T08:56:43;100359.81;;;0.92;100.00
5595;BME280;1003;48.002;7.788;2023-01-29T08:59:10;100357.59;;;1.16;100.00
5595;BME280;1003;48.002;7.788;2023-01-29T09:01:37;100354.94;;;1.29;100.00
5595;BME280;1003;48.002;7.788;2023-01-29T09:04:06;100345.66;;;1.25;100.00
5595;BME280;1003;48.002;7.788;2023-01-29T09:06:34;100345.88;;;1.30;100.00
5595;BME280;1003;48.002;7.788;2023-01-29T09:09:01;100332.47;;;1.44;100.00
5595;BME280;1003;48.002;7.788;2023-01-29T09:11:28;100329.00;;;1.58;100.00
5595;BME280;1003;48.002;7.788;2023-01-29T09:13:55;100321.09;;;1.48;100.00
5595;BME280;1003;48.002;7.788;2023-01-29T09:16:22;100310.16;;;1.62;100.00
5595;BME280;1003;48.002;7.788;2023-01-29T09:18:49;100292.03;;;1.63;100.00
5595;BME280;1003;48.002;7.788;2023-01-29T09:21:17;100287.56;;;1.56;100.00
5595;BME280;1003;48.002;7.788;2023-01-29T09:23:44;100283.53;;;1.77;100.00
5595;BME280;1003;48.002;7.788;2023-01-29T09:26:11;100274.63;;;1.81;100.00
5595;BME280;1003;48.002;7.788;2023-01-29T09:28:38;100269.06;;;1.87;100.00
5595;BME280;1003;48.002;7.788;2023-01-29T09:31:05;100262.63;;;1.90;100.00
5595;BME280;1003;48.002;7.788;2023-01-29T09:33:32;100250.53;;;1.98;100.00
5595;BME280;1003;48.002;7.788;2023-01-29T09:36:01;100250.78;;;2.04;100.00
5595;BME280;1003;48.002;7.788;2023-01-29T09:38:30;100238.66;;;2.31;100.00
5595;BME280;1003;48.002;7.788;2023-01-29T09:41:06;100230.97;;;2.46;100.00
5595;BME280;1003;48.002;7.788;2023-01-29T09:43:46;100216.94;;;2.46;100.00
5595;BME280;1003;48.002;7.788;2023-01-29T09:46:19;100217.34;;;2.57;100.00
5595;BME280;1003;48.002;7.788;2023-01-29T09:48:57;100202.47;;;2.57;100.00
5595;BME280;1003;48.002;7.788;2023-01-29T09:51:29;100194.81;;;2.73;100.00
5595;BME280;1003;48.002;7.788;2023-01-29T09:54:11;100185.19;;;2.81;100.00
5595;BME280;1003;48.002;7.788;2023-01-29T09:56:41;100173.28;;;2.51;100.00
5595;BME280;1003;48.002;7.788;2023-01-29T09:59:13;100165.03;;;2.73;100.00
5595;BME280;1003;48.002;7.788;2023-01-29T10:01:53;100175.06;;;2.99;100.00
5595;BME280;1003;48.002;7.788;2023-01-29T10:04:48;100173.13;;;3.14;100.00
5595;BME280;1003;48.002;7.788;2023-01-29T10:07:46;100164.50;;;2.16;100.00
5595;BME280;1003;48.002;7.788;2023-01-29T10:10:32;100172.00;;;2.61;100.00
5595;BME280;1003;48.002;7.788;2023-01-29T10:13:16;100164.13;;;2.71;100.00
5595;BME280;1003;48.002;7.788;2023-01-29T10:16:15;100163.72;;;2.17;100.00
5595;BME280;1003;48.002;7.788;2023-01-29T10:19:10;100158.94;;;2.01;100.00
5595;BME280;1003;48.002;7.788;2023-01-29T10:22:05;100150.41;;;1.54;100.00
5595;BME280;1003;48.002;7.788;2023-01-29T10:24:46;100139.50;;;1.50;100.00
5595;BME280;1003;48.002;7.788;2023-01-29T10:27:18;100131.47;;;1.75;100.00
5595;BME280;1003;48.002;7.788;2023-01-29T10:29:49;100124.34;;;2.04;100.00
5595;BME280;1003;48.002;7.788;2023-01-29T10:32:24;100124.63;;;2.55;100.00
5595;BME280;1003;48.002;7.788;2023-01-29T10:34:55;100108.56;;;2.45;100.00
5595;BME280;1003;48.002;7.788;2023-01-29T10:37:35;100112.19;;;2.53;100.00
5595;BME280;1003;48.002;7.788;2023-01-29T10:40:19;100112.78;;;3.16;100.00
5595;BME280;1003;48.002;7.788;2023-01-29T10:42:57;100096.56;;;3.26;100.00
5595;BME280;1003;48.002;7.788;2023-01-29T10:45:36;100092.78;;;3.37;100.00
5595;BME280;1003;48.002;7.788;2023-01-29T10:48:39;100084.28;;;3.31;100.00
5595;BME280;1003;48.002;7.788;2023-01-29T10:51:24;100102.94;;;3.69;100.00
5595;BME280;1003;48.002;7.788;2023-01-29T10:54:12;100092.00;;;3.64;100.00
5595;BME280;1003;48.002;7.788;2023-01-29T10:56:59;100090.84;;;3.54;100.00
5595;BME280;1003;48.002;7.788;2023-01-29T10:59:54;100096.91;;;3.61;100.00
5595;BME280;1003;48.002;7.788;2023-01-29T11:02:24;100100.16;;;3.85;100.00
5595;BME280;1003;48.002;7.788;2023-01-29T11:04:51;100101.13;;;3.90;100.00
5595;BME280;1003;48.002;7.788;2023-01-29T11:07:21;100111.41;;;4.01;100.00
5595;BME280;1003;48.002;7.788;2023-01-29T11:09:56;100113.19;;;4.04;100.00
5595;BME280;1003;48.002;7.788;2023-01-29T11:12:29;100109.78;;;3.76;100.00
5595;BME280;1003;48.002;7.788;2023-01-29T11:15:04;100104.88;;;3.78;100.00
5595;BME280;1003;48.002;7.788;2023-01-29T11:17:32;100112.88;;;3.94;100.00
5595;BME280;1003;48.002;7.788;2023-01-29T11:19:59;100104.75;;;4.00;100.00
5595;BME280;1003;48.002;7.788;2023-01-29T11:22:28;100096.00;;;4.11;100.00
5595;BME280;1003;48.002;7.788;2023-01-29T11:25:15;100098.81;;;4.22;100.00
5595;BME280;1003;48.002;7.788;2023-01-29T11:27:45;100103.69;;;4.76;100.00
5595;BME280;1003;48.002;7.788;2023-01-29T11:30:22;100094.91;;;5.19;100.00
5595;BME280;1003;48.002;7.788;2023-01-29T11:32:58;100094.19;;;5.23;100.00
5595;BME280;1003;48.002;7.788;2023-01-29T11:35:26;100084.19;;;4.91;100.00
5595;BME280;1003;48.002;7.788;2023-01-29T11:38:08;100087.59;;;5.26;100.00
5595;BME280;1003;48.002;7.788;2023-01-29T11:40:40;100077.56;;;5.23;100.00
5595;BME280;1003;48.002;7.788;2023-01-29T11:43:19;100078.41;;;4.92;100.00
5595;BME280;1003;48.002;7.788;2023-01-29T11:45:51;100080.50;;;5.09;100.00
5595;BME280;1003;48.002;7.788;2023-01-29T11:48:21;100085.88;;;5.56;100.00
5595;BME280;1003;48.002;7.788;2023-01-29T11:50:54;100086.81;;;5.28;100.00
5595;BME280;1003;48.002;7.788;2023-01-29T11:53:35;100080.88;;;4.91;100.00
5595;BME280;1003;48.002;7.788;2023-01-29T11:56:15;100075.38;;;5.03;100.00
5595;BME280;1003;48.002;7.788;2023-01-29T11:58:44;100071.44;;;5.44;100.00
5595;BME280;1003;48.002;7.788;2023-01-29T12:01:16;100072.75;;;5.30;100.00
5595;BME280;1003;48.002;7.788;2023-01-29T12:03:52;100059.03;;;5.14;100.00
5595;BME280;1003;48.002;7.788;2023-01-29T12:06:22;100063.94;;;4.79;100.00
5595;BME280;1003;48.002;7.788;2023-01-29T12:08:56;100064.25;;;4.90;100.00
5595;BME280;1003;48.002;7.788;2023-01-29T12:11:28;100060.22;;;4.65;100.00
5595;BME280;1003;48.002;7.788;2023-01-29T12:13:57;100060.41;;;5.03;100.00
5595;BME280;1003;48.002;7.788;2023-01-29T12:16:30;100073.28;;;5.18;100.00
5595;BME280;1003;48.002;7.788;2023-01-29T12:19:08;100063.31;;;5.18;100.00
5595;BME280;1003;48.002;7.788;2023-01-29T12:21:45;100057.88;;;4.69;100.00
5595;BME280;1003;48.002;7.788;2023-01-29T12:24:28;100068.47;;;4.94;100.00
5595;BME280;1003;48.002;7.788;2023-01-29T12:27:06;100057.41;;;4.84;100.00
5595;BME280;1003;48.002;7.788;2023-01-29T12:29:46;100055.56;;;5.07;100.00
5595;BME280;1003;48.002;7.788;2023-01-29T12:32:33;100042.44;;;4.83;100.00
5595;BME280;1003;48.002;7.788;2023-01-29T12:35:11;100048.53;;;4.94;100.00
5595;BME280;1003;48.002;7.788;2023-01-29T12:37:51;100047.25;;;5.07;100.00
5595;BME280;1003;48.002;7.788;2023-01-29T12:40:23;100045.66;;;5.10;100.00
5595;BME280;1003;48.002;7.788;2023-01-29T12:42:56;100052.22;;;5.07;100.00
5595;BME280;1003;48.002;7.788;2023-01-29T12:45:29;100051.66;;;4.85;100.00
5595;BME280;1003;48.002;7.788;2023-01-29T12:48:05;100047.44;;;4.84;100.00
5595;BME280;1003;48.002;7.788;2023-01-29T12:50:36;100039.53;;;4.67;100.00
5595;BME280;1003;48.002;7.788;2023-01-29T12:53:12;100034.44;;;4.63;100.00
5595;BME280;1003;48.002;7.788;2023-01-29T12:55:50;100027.44;;;4.21;100.00
5595;BME280;1003;48.002;7.788;2023-01-29T12:58:23;100031.47;;;4.17;100.00
5595;BME280;1003;48.002;7.788;2023-01-29T13:01:01;100025.72;;;4.47;100.00
5595;BME280;1003;48.002;7.788;2023-01-29T13:03:38;100023.31;;;4.21;100.00
5595;BME280;1003;48.002;7.788;2023-01-29T13:06:16;100025.63;;;4.44;100.00
5595;BME280;1003;48.002;7.788;2023-01-29T13:08:47;100014.56;;;4.64;100.00
5595;BME280;1003;48.002;7.788;2023-01-29T13:11:24;100013.19;;;4.45;100.00
5595;BME280;1003;48.002;7.788;2023-01-29T13:13:58;100005.97;;;4.25;100.00
5595;BME280;1003;48.002;7.788;2023-01-29T13:16:30;100000.50;;;4.08;100.00
5595;BME280;1003;48.002;7.788;2023-01-29T13:19:04;100006.28;;;4.35;100.00
5595;BME280;1003;48.002;7.788;2023-01-29T13:21:36;100000.50;;;4.08;100.00
5595;BME280;1003;48.002;7.788;2023-01-29T13:24:14;99996.88;;;4.25;100.00
5595;BME280;1003;48.002;7.788;2023-01-29T13:26:44;99996.00;;;4.53;100.00
5595;BME280;1003;48.002;7.788;2023-01-29T13:29:21;99986.84;;;4.84;100.00
5595;BME280;1003;48.002;7.788;2023-01-29T13:31:51;99989.28;;;5.14;100.00
5595;BME280;1003;48.002;7.788;2023-01-29T13:34:24;99982.38;;;5.04;100.00
5595;BME280;1003;48.002;7.788;2023-01-29T13:36:56;99980.63;;;5.34;100.00
5595;BME280;1003;48.002;7.788;2023-01-29T13:39:28;99970.25;;;5.52;100.00
5595;BME280;1003;48.002;7.788;2023-01-29T13:41:58;99953.50;;;5.46;100.00